Time;durP1;ratioP1;P1;durP2;ratioP2;P2;SDS_P1;SDS_P2;PMS_P1;PMS_P2;Temp;Humidity;BMP_temperature;BMP_pressure;BME280_temperature;BME280_humidity;BME280_pressure;Samples;Min_cycle;Max_cycle;Signal;HPM_P1;HPM_P2
2022/03/18 00:01:45;;;;;;;18.85;7.85;;;5.40;99.90;;;;;;4949019;28;20045;-84
2022/03/18 00:04:12;;;;;;;13.05;7.30;;;5.40;99.90;;;;;;4949314;28;20043;-84
2022/03/18 00:06:39;;;;;;;23.42;8.02;;;5.40;99.90;;;;;;4959261;28;20046;-86
2022/03/18 00:09:05;;;;;;;16.05;8.00;;;6.10;99.90;;;;;;4963371;28;20035;-84
2022/03/18 00:11:30;;;;;;;20.65;7.78;;;5.40;99.90;;;;;;4945978;28;20096;-85
2022/03/18 00:13:58;;;;;;;19.85;7.43;;;5.40;99.90;;;;;;4943843;28;20113;-85
2022/03/18 00:16:24;;;;;;;16.80;6.45;;;5.50;99.90;;;;;;4952016;28;20046;-85
2022/03/18 00:18:50;;;;;;;17.13;6.90;;;5.50;99.90;;;;;;4966834;28;20055;-83
2022/03/18 00:21:16;;;;;;;20.75;8.10;;;5.50;99.90;;;;;;4971689;28;20053;-84
2022/03/18 00:23:42;;;;;;;20.13;7.88;;;5.50;99.90;;;;;;4939919;28;20563;-84
2022/03/18 00:26:08;;;;;;;18.75;7.40;;;5.50;99.90;;;;;;4934627;28;20129;-85
2022/03/18 00:28:33;;;;;;;17.67;7.15;;;5.70;99.90;;;;;;4971833;28;20031;-84
2022/03/18 00:30:59;;;;;;;20.17;8.05;;;5.50;99.90;;;;;;4966978;28;20077;-85
2022/03/18 00:33:25;;;;;;;15.75;7.60;;;5.90;99.90;;;;;;4964356;28;20823;-85
2022/03/18 00:35:52;;;;;;;17.33;7.63;;;5.50;99.90;;;;;;4936002;28;20038;-85
2022/03/18 00:38:17;;;;;;;20.38;7.45;;;5.50;99.90;;;;;;4951044;28;20038;-84
2022/03/18 00:40:48;;;;;;;20.48;8.13;;;5.50;99.90;;;;;;4955119;28;20049;-85
2022/03/18 00:43:14;;;;;;;18.65;8.00;;;5.50;99.90;;;;;;4957272;28;20038;-83
2022/03/18 00:45:40;;;;;;;20.20;7.93;;;5.40;99.90;;;;;;4954932;28;20520;-84
2022/03/18 00:53:34;;;;;;;25.27;8.98;;;5.40;99.90;;;;;;4958410;28;20038;-85
2022/03/18 00:56:00;;;;;;;16.13;6.80;;;5.30;99.90;;;;;;4938554;28;20527;-85
2022/03/18 00:58:25;;;;;;;14.82;6.55;;;5.90;99.90;;;;;;4951910;28;20108;-84
2022/03/18 01:00:51;;;;;;;24.88;7.82;;;5.30;99.90;;;;;;4951919;28;20038;-84
2022/03/18 01:03:17;;;;;;;12.88;7.30;;;5.30;99.90;;;;;;4957210;28;20520;-86
2022/03/18 01:05:42;;;;;;;17.30;7.15;;;5.30;99.90;;;;;;4952895;28;20034;-84
2022/03/18 01:08:08;;;;;;;17.52;7.93;;;5.30;99.90;;;;;;4946227;28;20061;-85
2022/03/18 01:10:34;;;;;;;17.90;7.38;;;5.80;99.90;;;;;;4956886;28;20599;-84
2022/03/18 01:13:00;;;;;;;14.32;6.35;;;5.30;99.90;;;;;;4942213;28;20650;-83
2022/03/18 01:15:26;;;;;;;14.85;7.18;;;5.30;99.90;;;;;;4968962;28;20161;-83
2022/03/18 01:17:52;;;;;;;17.38;7.13;;;5.30;99.90;;;;;;4943605;28;20064;-84
2022/03/18 01:20:18;;;;;;;20.80;8.10;;;5.20;99.90;;;;;;4943863;28;20101;-86
2022/03/18 01:22:43;;;;;;;17.80;7.78;;;5.20;99.90;;;;;;4960649;28;20065;-84
2022/03/18 01:25:09;;;;;;;12.38;7.60;;;5.50;99.90;;;;;;4945260;28;20035;-84
2022/03/18 01:27:35;;;;;;;18.35;7.78;;;5.10;99.90;;;;;;4941558;28;20529;-83
2022/03/18 01:30:01;;;;;;;19.50;7.80;;;5.60;99.90;;;;;;4917995;28;20039;-85
2022/03/18 01:32:26;;;;;;;16.08;7.55;;;5.60;99.90;;;;;;4940925;28;20069;-85
2022/03/18 01:34:54;;;;;;;19.70;8.60;;;5.10;99.90;;;;;;4950710;28;20202;-83
2022/03/18 01:37:19;;;;;;;18.05;8.13;;;5.10;99.90;;;;;;4945542;28;20042;-84
2022/03/18 01:39:45;;;;;;;17.90;6.72;;;5.20;99.90;;;;;;4960931;28;20035;-83
2022/03/18 01:42:11;;;;;;;16.55;8.25;;;5.50;99.90;;;;;;4942081;28;20129;-84
2022/03/18 01:44:41;;;;;;;15.55;7.55;;;5.10;99.90;;;;;;4942875;28;20101;-84
2022/03/18 01:47:08;;;;;;;16.67;7.72;;;4.90;99.90;;;;;;4974432;28;20035;-84
2022/03/18 01:49:34;;;;;;;18.20;7.53;;;5.40;99.90;;;;;;4939067;28;20112;-84
2022/03/18 01:52:00;;;;;;;16.60;8.50;;;5.00;99.90;;;;;;4925347;28;20062;-84
2022/03/18 01:54:44;;;;;;;16.98;8.65;;;4.90;99.90;;;;;;4959902;28;20046;-84
2022/03/18 01:57:11;;;;;;;18.77;8.75;;;5.50;99.90;;;;;;4943407;28;20057;-83
2022/03/18 01:59:38;;;;;;;20.83;9.23;;;4.90;99.90;;;;;;4937883;28;20038;-83
2022/03/18 02:02:04;;;;;;;17.55;8.07;;;4.90;99.90;;;;;;4937057;28;20038;-83
2022/03/18 02:04:30;;;;;;;17.45;8.77;;;4.90;99.90;;;;;;4963642;28;20089;-83
2022/03/18 02:06:56;;;;;;;18.45;8.52;;;5.50;99.90;;;;;;4961102;28;20035;-83
2022/03/18 02:09:22;;;;;;;23.42;9.63;;;4.90;99.90;;;;;;4948344;28;20046;-84
2022/03/18 02:11:48;;;;;;;19.73;9.38;;;4.90;99.90;;;;;;4970821;28;20620;-84
2022/03/18 02:14:28;;;;;;;22.55;9.90;;;5.00;99.90;;;;;;4945258;28;20073;-84
2022/03/18 02:16:54;;;;;;;16.42;9.00;;;5.00;99.90;;;;;;4961341;28;20097;-85
2022/03/18 02:19:19;;;;;;;15.15;8.13;;;4.90;99.90;;;;;;4950379;28;20042;-84
2022/03/18 02:21:48;;;;;;;21.33;8.27;;;4.90;99.90;;;;;;4970058;28;20038;-84
2022/03/18 02:24:14;;;;;;;19.35;8.93;;;5.20;99.90;;;;;;4946780;28;20038;-84
2022/03/18 02:26:39;;;;;;;20.33;9.73;;;5.30;99.90;;;;;;4948093;28;20038;-84
2022/03/18 02:29:07;;;;;;;16.70;7.80;;;4.90;99.90;;;;;;4942765;28;22651;-84
2022/03/18 02:31:32;;;;;;;16.63;8.02;;;4.90;99.90;;;;;;4940887;28;20039;-84
2022/03/18 02:33:58;;;;;;;22.25;8.50;;;4.90;99.90;;;;;;4938787;28;20129;-85
2022/03/18 02:36:24;;;;;;;23.77;10.10;;;4.90;99.90;;;;;;4962223;28;20034;-85
2022/03/18 02:38:49;;;;;;;19.75;9.18;;;4.90;99.90;;;;;;4944561;28;20098;-83
2022/03/18 02:41:15;;;;;;;16.45;8.18;;;4.90;99.90;;;;;;4967109;28;20568;-85
2022/03/18 02:43:41;;;;;;;16.50;8.40;;;4.90;99.90;;;;;;4940460;28;20142;-84
2022/03/18 02:46:07;;;;;;;16.45;8.48;;;5.00;99.90;;;;;;4968223;28;20476;-85
2022/03/18 02:48:32;;;;;;;17.73;8.07;;;5.00;99.90;;;;;;4975944;28;20034;-84
2022/03/18 02:50:58;;;;;;;29.25;10.50;;;5.60;99.90;;;;;;4959310;28;20038;-84
2022/03/18 02:53:24;;;;;;;17.80;10.27;;;5.00;99.90;;;;;;4938447;28;20041;-84
2022/03/18 02:55:50;;;;;;;24.65;10.60;;;5.10;99.90;;;;;;4926252;28;20063;-84
2022/03/18 02:58:16;;;;;;;18.13;9.73;;;5.30;99.90;;;;;;4968512;28;20518;-85
2022/03/18 03:00:42;;;;;;;21.00;10.00;;;5.10;99.90;;;;;;4957776;28;20069;-85
2022/03/18 03:03:08;;;;;;;19.83;10.68;;;5.10;99.90;;;;;;4948990;28;20038;-84
2022/03/18 03:08:17;;;;;;;17.65;10.25;;;5.20;99.90;;;;;;4968075;28;20094;-85
2022/03/18 03:10:43;;;;;;;20.75;10.10;;;5.10;99.90;;;;;;4950396;28;20074;-85
2022/03/18 03:13:12;;;;;;;20.42;10.63;;;5.50;99.90;;;;;;4918736;28;20045;-83
2022/03/18 03:15:39;;;;;;;15.75;9.85;;;5.20;99.90;;;;;;4948516;28;20070;-84
2022/03/18 03:18:06;;;;;;;12.45;7.15;;;5.20;99.90;;;;;;4944892;28;20084;-84
2022/03/18 03:20:32;;;;;;;20.13;8.30;;;5.50;99.90;;;;;;4974795;28;20047;-85
2022/03/18 03:22:58;;;;;;;21.83;10.02;;;5.30;99.90;;;;;;4943914;28;20107;-85
2022/03/18 03:25:23;;;;;;;14.18;8.55;;;5.90;99.90;;;;;;4962512;28;20102;-84
2022/03/18 03:27:53;;;;;;;17.25;7.68;;;5.30;99.90;;;;;;4966046;28;20030;-84
2022/03/18 03:30:20;;;;;;;24.58;11.23;;;5.30;99.90;;;;;;4963041;28;20820;-84
2022/03/18 03:32:46;;;;;;;13.88;7.47;;;5.60;99.90;;;;;;4978448;28;20058;-84
2022/03/18 03:35:12;;;;;;;21.60;11.25;;;5.40;99.90;;;;;;4947064;28;20041;-83
2022/03/18 03:37:38;;;;;;;20.88;10.50;;;5.30;99.90;;;;;;4942750;28;20531;-84
2022/03/18 03:40:05;;;;;;;17.40;9.77;;;5.30;99.90;;;;;;4966783;28;20046;-84
2022/03/18 03:42:30;;;;;;;16.45;9.48;;;5.30;99.90;;;;;;4991341;28;20053;-85
2022/03/18 03:44:56;;;;;;;17.05;9.18;;;5.80;99.90;;;;;;4962467;28;20042;-85
2022/03/18 03:47:22;;;;;;;15.30;9.15;;;5.40;99.90;;;;;;4980250;28;20038;-86
2022/03/18 03:49:48;;;;;;;16.48;9.02;;;5.40;99.90;;;;;;4948524;28;20038;-86
2022/03/18 03:52:15;;;;;;;20.30;10.55;;;5.70;99.90;;;;;;4973573;28;20049;-84
2022/03/18 03:54:40;;;;;;;17.42;10.13;;;5.40;99.90;;;;;;4973395;28;20042;-85
2022/03/18 03:57:07;;;;;;;14.80;8.60;;;6.10;99.90;;;;;;4972503;28;20053;-85
2022/03/18 03:59:33;;;;;;;23.60;10.60;;;5.40;99.90;;;;;;4972096;28;20037;-84
2022/03/18 04:01:59;;;;;;;13.70;8.10;;;6.00;99.90;;;;;;4966028;28;20054;-86
2022/03/18 04:04:26;;;;;;;18.00;9.68;;;5.40;99.90;;;;;;4968931;28;20045;-86
2022/03/18 04:06:52;;;;;;;15.43;8.48;;;6.00;99.90;;;;;;4967187;28;20062;-85
2022/03/18 04:09:18;;;;;;;20.98;9.48;;;5.90;99.90;;;;;;4950245;28;20034;-83
2022/03/18 04:11:44;;;;;;;17.10;9.25;;;5.40;99.90;;;;;;4941662;28;20026;-84
2022/03/18 04:14:09;;;;;;;13.05;7.45;;;5.70;99.90;;;;;;4939960;28;20047;-84
2022/03/18 04:16:35;;;;;;;16.67;8.68;;;5.70;99.90;;;;;;4946142;28;20141;-86
2022/03/18 04:19:03;;;;;;;18.80;9.32;;;5.50;99.90;;;;;;4935771;28;20051;-84
2022/03/18 04:21:29;;;;;;;18.20;9.20;;;5.50;99.90;;;;;;4939342;28;20062;-85
2022/03/18 04:23:54;;;;;;;16.83;7.80;;;5.90;99.90;;;;;;4956732;28;20042;-84
2022/03/18 04:26:20;;;;;;;18.95;9.35;;;5.70;99.90;;;;;;4923724;28;20420;-84
2022/03/18 04:28:46;;;;;;;22.58;9.80;;;6.10;99.90;;;;;;4953346;28;20034;-85
2022/03/18 04:31:12;;;;;;;17.30;9.30;;;5.60;99.90;;;;;;4952527;28;20500;-83
2022/03/18 04:33:38;;;;;;;21.02;9.35;;;5.50;99.90;;;;;;4943300;28;20031;-84
2022/03/18 04:36:04;;;;;;;17.92;9.45;;;5.50;99.90;;;;;;4936673;28;20393;-84
2022/03/18 04:38:30;;;;;;;24.02;10.18;;;5.40;99.90;;;;;;4956428;28;20037;-85
2022/03/18 04:40:56;;;;;;;19.55;10.13;;;5.40;99.90;;;;;;4926540;28;20038;-84
2022/03/18 04:43:21;;;;;;;18.30;9.07;;;6.00;99.90;;;;;;4958666;28;20037;-84
2022/03/18 04:45:47;;;;;;;17.00;9.73;;;5.70;99.90;;;;;;4954299;28;20042;-85
2022/03/18 04:48:13;;;;;;;17.88;9.63;;;5.90;99.90;;;;;;4939156;28;20429;-85
2022/03/18 04:50:39;;;;;;;16.50;8.88;;;5.30;99.90;;;;;;4959924;28;20034;-85
2022/03/18 04:53:05;;;;;;;15.60;8.77;;;5.30;99.90;;;;;;4939183;28;20042;-84
2022/03/18 04:55:30;;;;;;;18.83;9.82;;;5.30;99.90;;;;;;4956493;28;20058;-83
2022/03/18 04:57:56;;;;;;;19.02;8.75;;;5.20;99.90;;;;;;4975808;28;20113;-86
2022/03/18 05:00:24;;;;;;;15.20;8.45;;;5.20;99.90;;;;;;4951824;28;20061;-85
2022/03/18 05:02:51;;;;;;;17.85;9.00;;;5.10;99.90;;;;;;4949320;28;20038;-84
2022/03/18 05:05:19;;;;;;;13.65;7.95;;;5.30;99.90;;;;;;4943353;28;20070;-83
2022/03/18 05:07:52;;;;;;;12.85;7.80;;;5.00;99.90;;;;;;4952126;28;20034;-84
2022/03/18 05:10:18;;;;;;;19.30;10.50;;;5.00;99.90;;;;;;4968298;28;20039;-84
2022/03/18 05:12:45;;;;;;;19.08;9.65;;;5.50;99.90;;;;;;4952040;28;20038;-85
2022/03/18 05:15:12;;;;;;;14.55;8.63;;;4.90;99.90;;;;;;4926798;28;20505;-84
2022/03/18 05:17:39;;;;;;;17.40;9.25;;;4.90;99.90;;;;;;4968992;28;20536;-85
2022/03/18 05:20:10;;;;;;;14.73;8.95;;;4.80;99.90;;;;;;4951120;28;20096;-84
2022/03/18 05:22:36;;;;;;;14.25;8.05;;;4.80;99.90;;;;;;4952717;28;20039;-85
2022/03/18 05:25:02;;;;;;;19.15;8.65;;;4.80;99.90;;;;;;4951866;28;20035;-84
2022/03/18 05:27:28;;;;;;;14.85;9.52;;;4.70;99.90;;;;;;4956376;28;20039;-84
2022/03/18 05:29:53;;;;;;;16.50;8.70;;;4.70;99.90;;;;;;4939559;28;20045;-85
2022/03/18 05:32:19;;;;;;;15.65;8.52;;;4.60;99.90;;;;;;4951795;28;20038;-84
2022/03/18 05:34:45;;;;;;;15.98;8.38;;;5.00;99.90;;;;;;4968603;28;20056;-85
2022/03/18 05:37:11;;;;;;;15.90;8.85;;;4.50;99.90;;;;;;4952513;28;20043;-85
2022/03/18 05:39:37;;;;;;;13.55;9.20;;;4.50;99.90;;;;;;4978344;28;20042;-86
2022/03/18 05:42:04;;;;;;;13.85;8.90;;;4.50;99.90;;;;;;4943826;28;20050;-85
2022/03/18 05:44:30;;;;;;;15.48;9.60;;;4.40;99.90;;;;;;4951678;28;20043;-84
2022/03/18 05:46:56;;;;;;;18.00;8.75;;;4.40;99.90;;;;;;4948400;28;20030;-84
2022/03/18 05:49:22;;;;;;;14.35;9.32;;;5.00;99.90;;;;;;4959479;28;20042;-83
2022/03/18 05:51:48;;;;;;;13.95;8.50;;;4.30;99.90;;;;;;4942702;28;20041;-85
2022/03/18 05:54:14;;;;;;;17.05;9.25;;;4.30;99.90;;;;;;4929702;28;20048;-84
2022/03/18 05:56:55;;;;;;;13.38;8.20;;;4.30;99.90;;;;;;4957919;28;20073;-84
2022/03/18 05:59:30;;;;;;;19.80;9.50;;;4.20;99.90;;;;;;4952078;28;20425;-85
2022/03/18 06:01:58;;;;;;;17.25;9.48;;;4.20;99.90;;;;;;4958526;28;20049;-85
2022/03/18 06:04:25;;;;;;;14.48;10.27;;;4.10;99.90;;;;;;4969877;28;20041;-84
2022/03/18 06:06:50;;;;;;;15.95;9.35;;;4.20;99.90;;;;;;4960502;28;20422;-84
2022/03/18 06:12:03;;;;;;;15.85;10.05;;;4.10;99.90;;;;;;4964531;28;20040;-82
2022/03/18 06:14:30;;;;;;;21.48;9.27;;;4.10;99.90;;;;;;4963962;28;21340;-84
2022/03/18 06:16:59;;;;;;;20.00;9.52;;;4.20;99.90;;;;;;4965702;28;20046;-85
2022/03/18 06:19:27;;;;;;;16.67;9.15;;;4.50;99.90;;;;;;4974148;28;20429;-85
2022/03/18 06:21:53;;;;;;;18.17;10.43;;;4.20;99.90;;;;;;4960699;28;20074;-84
2022/03/18 06:24:23;;;;;;;19.92;9.93;;;4.20;99.90;;;;;;4932305;28;20038;-84
2022/03/18 06:26:55;;;;;;;11.60;8.25;;;4.80;99.90;;;;;;4940804;28;20129;-85
2022/03/18 06:29:21;;;;;;;13.60;8.30;;;4.60;99.90;;;;;;4947994;28;20056;-84
2022/03/18 06:31:48;;;;;;;13.43;8.55;;;4.90;99.90;;;;;;4949974;28;20125;-84
2022/03/18 06:34:14;;;;;;;11.35;7.55;;;4.40;99.90;;;;;;4948086;28;20046;-83
2022/03/18 06:36:41;;;;;;;15.82;9.73;;;4.40;99.90;;;;;;4971033;28;20097;-85
2022/03/18 06:39:07;;;;;;;12.93;9.43;;;4.40;99.90;;;;;;4973401;28;20069;-83
2022/03/18 06:41:34;;;;;;;14.30;9.13;;;4.50;99.90;;;;;;4935723;28;20189;-84
2022/03/18 06:43:59;;;;;;;15.13;9.73;;;4.80;99.90;;;;;;4974528;28;20046;-84
2022/03/18 06:46:26;;;;;;;15.15;9.15;;;4.90;99.90;;;;;;4940004;28;20042;-84
2022/03/18 06:48:51;;;;;;;16.65;10.10;;;4.60;99.90;;;;;;4960822;28;20045;-86
2022/03/18 06:51:17;;;;;;;17.15;9.88;;;4.70;99.90;;;;;;4942294;28;20042;-85
2022/03/18 06:53:44;;;;;;;17.20;11.38;;;4.70;99.90;;;;;;4953969;28;20098;-84
2022/03/18 06:56:12;;;;;;;18.02;11.45;;;4.90;99.90;;;;;;4943443;28;20034;-84
2022/03/18 06:58:38;;;;;;;14.70;9.95;;;5.70;99.90;;;;;;4929811;28;20070;-83
2022/03/18 07:01:04;;;;;;;20.33;12.20;;;5.10;99.90;;;;;;4949683;28;20362;-84
2022/03/18 07:03:29;;;;;;;21.13;12.30;;;5.90;99.90;;;;;;4941462;28;20039;-84
2022/03/18 07:05:55;;;;;;;20.65;12.23;;;5.40;99.90;;;;;;4958554;28;20035;-85
2022/03/18 07:08:21;;;;;;;20.10;12.82;;;5.60;99.90;;;;;;4971432;28;20061;-86
2022/03/18 07:10:47;;;;;;;16.85;12.05;;;6.40;99.90;;;;;;4934274;28;20053;-86
2022/03/18 07:13:14;;;;;;;19.52;10.65;;;5.90;99.90;;;;;;4942571;28;20049;-85
2022/03/18 07:15:39;;;;;;;23.00;13.32;;;6.70;99.90;;;;;;4946019;28;20053;-85
2022/03/18 07:18:06;;;;;;;18.88;12.55;;;6.20;99.90;;;;;;4940150;28;20059;-85
2022/03/18 07:20:36;;;;;;;18.02;11.82;;;6.30;99.90;;;;;;4949719;28;20042;-84
2022/03/18 07:23:08;;;;;;;18.88;13.00;;;6.80;99.90;;;;;;4981503;28;20054;-84
2022/03/18 07:25:37;;;;;;;20.45;12.45;;;6.50;99.90;;;;;;4975605;28;20030;-85
2022/03/18 07:28:04;;;;;;;19.83;11.23;;;6.70;99.90;;;;;;4978099;28;20041;-84
2022/03/18 07:30:30;;;;;;;16.38;10.27;;;6.80;99.90;;;;;;4941665;28;20045;-86
2022/03/18 07:32:56;;;;;;;18.05;11.38;;;6.90;99.90;;;;;;4959519;28;20030;-84
2022/03/18 07:35:22;;;;;;;15.82;11.35;;;6.90;99.90;;;;;;4950888;28;20093;-85
2022/03/18 07:37:49;;;;;;;17.20;11.90;;;7.10;99.90;;;;;;4972884;28;20038;-84
2022/03/18 07:40:17;;;;;;;23.98;12.25;;;7.10;99.90;;;;;;4975191;28;20370;-84
2022/03/18 07:42:54;;;;;;;21.52;11.00;;;7.20;99.90;;;;;;4950971;28;20040;-84
2022/03/18 07:45:26;;;;;;;21.63;12.15;;;7.30;99.90;;;;;;4963499;28;20089;-84
2022/03/18 07:47:53;;;;;;;19.00;11.93;;;7.40;99.90;;;;;;4962257;28;20049;-84
2022/03/18 07:50:24;;;;;;;24.17;11.80;;;7.40;99.90;;;;;;4949125;28;20050;-86
2022/03/18 07:52:51;;;;;;;19.45;12.30;;;7.50;99.90;;;;;;4961448;28;20061;-85
2022/03/18 07:55:24;;;;;;;26.67;12.02;;;7.60;99.90;;;;;;4968177;28;20034;-87
2022/03/18 07:57:50;;;;;;;25.50;13.33;;;7.70;99.90;;;;;;4963350;28;20052;-86
2022/03/18 08:00:17;;;;;;;23.75;11.73;;;7.80;99.90;;;;;;4990126;28;20089;-85
2022/03/18 08:02:44;;;;;;;21.33;11.95;;;7.90;99.90;;;;;;4974350;28;20045;-85
2022/03/18 08:05:11;;;;;;;21.88;11.70;;;8.00;99.90;;;;;;4992012;28;20058;-86
2022/03/18 08:07:37;;;;;;;25.40;12.23;;;8.10;99.90;;;;;;4978696;28;20164;-87
2022/03/18 08:10:04;;;;;;;26.80;11.82;;;8.20;99.90;;;;;;4965313;28;20038;-84
2022/03/18 08:12:31;;;;;;;20.73;9.32;;;8.30;99.90;;;;;;4968756;28;20078;-88
2022/03/18 08:15:03;;;;;;;24.83;11.73;;;8.40;99.90;;;;;;4949011;28;20058;-86
2022/03/18 08:17:29;;;;;;;26.30;9.47;;;8.50;99.90;;;;;;4970949;28;20097;-85
2022/03/18 08:19:56;;;;;;;21.20;10.45;;;8.60;99.90;;;;;;4974403;28;20443;-87
2022/03/18 08:22:22;;;;;;;23.63;10.90;;;8.70;99.90;;;;;;4942415;28;20041;-84
2022/03/18 08:24:49;;;;;;;21.58;10.07;;;8.80;99.90;;;;;;4939867;28;20042;-85
2022/03/18 08:27:15;;;;;;;23.48;9.63;;;9.00;99.90;;;;;;4979167;28;20038;-84
2022/03/18 08:29:42;;;;;;;21.63;10.40;;;9.10;99.90;;;;;;4956174;28;20070;-84
2022/03/18 08:32:13;;;;;;;27.13;10.02;;;9.20;99.90;;;;;;4967143;28;20121;-86
2022/03/18 08:34:39;;;;;;;22.13;8.88;;;9.40;99.90;;;;;;4951621;28;20512;-86
2022/03/18 08:37:06;;;;;;;15.20;7.47;;;9.50;99.90;;;;;;4970628;28;20046;-83
2022/03/18 08:39:39;;;;;;;29.20;9.02;;;9.60;99.90;;;;;;4948491;28;20097;-87
2022/03/18 08:42:05;;;;;;;18.40;8.27;;;9.80;99.90;;;;;;4959561;28;20038;-86
2022/03/18 08:44:31;;;;;;;19.27;8.57;;;9.90;99.90;;;;;;4967637;28;20070;-85
2022/03/18 08:46:57;;;;;;;24.40;8.13;;;10.00;99.90;;;;;;4946669;28;20129;-86
2022/03/18 08:49:23;;;;;;;21.48;7.65;;;10.20;99.90;;;;;;4938915;28;20113;-84
2022/03/18 08:51:49;;;;;;;26.10;9.50;;;10.30;99.90;;;;;;4957742;28;20114;-85
2022/03/18 08:54:15;;;;;;;21.63;8.30;;;10.40;99.90;;;;;;4918588;28;20078;-84
2022/03/18 08:56:40;;;;;;;30.65;8.82;;;10.50;99.90;;;;;;4949016;28;20038;-85
2022/03/18 08:59:06;;;;;;;23.58;7.65;;;10.60;99.90;;;;;;4944898;28;20038;-84
2022/03/18 09:01:34;;;;;;;16.55;7.57;;;10.70;99.90;;;;;;4967057;28;20046;-84
2022/03/18 09:04:00;;;;;;;21.48;8.07;;;10.90;99.90;;;;;;4953643;28;20046;-84
2022/03/18 09:06:26;;;;;;;16.15;7.57;;;11.00;99.90;;;;;;4929353;28;20559;-88
2022/03/18 09:08:52;;;;;;;21.40;8.07;;;11.10;99.90;;;;;;4948619;28;20042;-86
2022/03/18 09:11:17;;;;;;;16.35;7.10;;;11.20;99.90;;;;;;4943945;28;20100;-84
2022/03/18 09:13:44;;;;;;;20.67;7.70;;;11.40;99.90;;;;;;4939548;28;20463;-87
2022/03/18 09:16:11;;;;;;;21.45;7.15;;;11.50;99.90;;;;;;4941962;28;20425;-86
2022/03/18 09:18:37;;;;;;;22.42;7.03;;;11.50;99.90;;;;;;4938624;28;20034;-86
2022/03/18 09:21:03;;;;;;;17.40;7.78;;;11.70;99.90;;;;;;4933005;28;20047;-86
2022/03/18 09:23:28;;;;;;;18.75;7.30;;;11.80;99.90;;;;;;4963030;28;20038;-87
2022/03/18 09:25:54;;;;;;;17.10;6.63;;;12.00;99.90;;;;;;4960828;28;20066;-86
2022/03/18 09:28:20;;;;;;;25.90;7.82;;;11.70;99.90;;;;;;4951235;28;20038;-87
2022/03/18 09:30:46;;;;;;;21.38;7.72;;;12.20;99.90;;;;;;4947664;28;20045;-84
2022/03/18 09:33:12;;;;;;;14.05;6.13;;;12.30;99.90;;;;;;4967257;28;20477;-84
2022/03/18 09:35:38;;;;;;;15.18;5.85;;;12.50;99.90;;;;;;4970899;28;20463;-85
2022/03/18 09:38:04;;;;;;;19.02;6.20;;;12.70;99.90;;;;;;4948865;28;20038;-85
2022/03/18 09:40:31;;;;;;;18.63;7.18;;;12.70;99.90;;;;;;4959184;28;20046;-85
2022/03/18 09:42:58;;;;;;;19.15;7.15;;;12.80;99.90;;;;;;4961581;28;20037;-86
2022/03/18 09:45:31;;;;;;;19.00;5.75;;;12.90;99.90;;;;;;4951177;28;20041;-86
2022/03/18 09:47:58;;;;;;;23.05;6.78;;;13.00;99.90;;;;;;4968247;28;20376;-86
2022/03/18 09:50:25;;;;;;;18.02;7.25;;;13.10;99.90;;;;;;4971063;28;20035;-86
2022/03/18 09:52:51;;;;;;;22.33;6.63;;;13.20;99.90;;;;;;4957270;28;20034;-86
2022/03/18 09:55:17;;;;;;;22.85;7.22;;;13.30;99.90;;;;;;4977500;28;20673;-87
2022/03/18 09:57:42;;;;;;;16.40;5.43;;;13.40;99.90;;;;;;4953390;28;20038;-87
2022/03/18 10:00:09;;;;;;;21.85;6.40;;;13.70;99.90;;;;;;4947862;28;20038;-88
2022/03/18 10:02:35;;;;;;;18.73;4.82;;;13.50;99.90;;;;;;4948152;28;20051;-88
2022/03/18 10:05:14;;;;;;;18.92;5.47;;;13.70;99.90;;;;;;4940988;28;20097;-85
2022/03/18 10:07:52;;;;;;;23.98;6.45;;;14.00;99.90;;;;;;4960590;28;20514;-85
2022/03/18 10:10:19;;;;;;;17.60;6.60;;;14.00;99.90;;;;;;4934943;28;20042;-84
2022/03/18 10:12:47;;;;;;;20.15;5.90;;;14.10;99.90;;;;;;4958699;28;20445;-87
2022/03/18 10:15:26;;;;;;;19.15;6.25;;;14.20;99.90;;;;;;4953958;28;20046;-85
2022/03/18 10:17:57;;;;;;;14.20;6.43;;;14.30;99.90;;;;;;4950504;28;20038;-86
2022/03/18 10:20:40;;;;;;;16.25;5.65;;;14.50;99.90;;;;;;4953546;28;20384;-87
2022/03/18 10:23:19;;;;;;;21.88;6.25;;;14.60;99.90;;;;;;4952444;28;20133;-86
2022/03/18 10:25:57;;;;;;;22.92;6.53;;;14.80;99.90;;;;;;4968356;28;20039;-87
2022/03/18 10:28:39;;;;;;;16.05;5.60;;;14.80;99.90;;;;;;4951957;28;20504;-86
2022/03/18 10:31:25;;;;;;;15.40;5.80;;;14.90;99.90;;;;;;4955286;28;20098;-85
2022/03/18 10:37:05;;;;;;;21.30;5.07;;;15.00;99.90;;;;;;4965079;28;20049;-86
2022/03/18 10:39:37;;;;;;;19.20;6.32;;;15.10;99.50;;;;;;4960017;28;20540;-85
2022/03/18 10:42:06;;;;;;;19.42;5.25;;;15.10;99.90;;;;;;4974628;28;20117;-85
2022/03/18 10:44:51;;;;;;;23.25;6.03;;;15.10;99.70;;;;;;4975329;28;20045;-86
2022/03/18 10:47:42;;;;;;;16.25;4.78;;;15.00;99.00;;;;;;4975371;28;20527;-91
2022/03/18 10:50:11;;;;;;;19.45;6.13;;;15.10;99.40;;;;;;4959680;28;20256;-86
2022/03/18 10:53:08;;;;;;;19.63;5.03;;;15.20;99.40;;;;;;4962053;28;20636;-86
2022/03/18 10:55:41;;;;;;;18.20;5.43;;;15.30;98.90;;;;;;4953612;28;20385;-88
2022/03/18 10:58:10;;;;;;;17.80;5.33;;;15.40;99.20;;;;;;4953198;28;20046;-85
2022/03/18 11:00:37;;;;;;;18.83;5.65;;;15.50;98.80;;;;;;4960016;28;20046;-87
2022/03/18 11:03:04;;;;;;;18.08;5.72;;;15.70;98.80;;;;;;4964319;28;20277;-90
2022/03/18 11:05:32;;;;;;;15.70;5.63;;;15.80;98.60;;;;;;4959877;28;20041;-87
2022/03/18 11:08:23;;;;;;;13.52;5.18;;;15.90;98.30;;;;;;4959573;28;20058;-85
2022/03/18 11:11:18;;;;;;;21.30;6.00;;;15.90;97.80;;;;;;4965027;28;20038;-85
2022/03/18 11:14:21;;;;;;;18.98;5.78;;;16.00;97.90;;;;;;4946686;28;20042;-87
2022/03/18 11:16:47;;;;;;;15.68;4.90;;;16.20;97.80;;;;;;4885114;29;20051;-83
2022/03/18 11:19:14;;;;;;;19.10;6.15;;;16.30;97.20;;;;;;4933398;28;20054;-88
2022/03/18 11:21:45;;;;;;;22.38;5.30;;;16.30;96.90;;;;;;4965278;28;20096;-87
2022/03/18 11:24:20;;;;;;;18.85;6.63;;;16.40;96.40;;;;;;4990300;28;20047;-89
2022/03/18 11:26:56;;;;;;;15.82;5.40;;;16.50;97.10;;;;;;4965567;28;20030;-94
2022/03/18 11:29:24;;;;;;;13.90;4.40;;;16.60;96.40;;;;;;4962618;28;20053;-89
2022/03/18 11:32:12;;;;;;;16.70;5.13;;;16.60;95.90;;;;;;4947450;28;20046;-85
2022/03/18 11:34:58;;;;;;;14.57;5.18;;;16.70;96.00;;;;;;4955650;28;20108;-92
2022/03/18 11:37:29;;;;;;;17.80;5.20;;;16.80;95.60;;;;;;4964537;28;20049;-87
2022/03/18 11:40:35;;;;;;;16.13;5.22;;;17.00;96.20;;;;;;4941142;28;20124;-87
2022/03/18 11:43:50;;;;;;;19.55;5.47;;;17.10;95.30;;;;;;4955709;28;20042;-88
2022/03/18 11:46:16;;;;;;;20.35;5.90;;;17.10;95.10;;;;;;4947018;28;20042;-90
2022/03/18 11:49:09;;;;;;;18.20;4.88;;;17.00;94.30;;;;;;4949287;28;20109;-88
2022/03/18 11:51:58;;;;;;;11.52;4.57;;;17.00;93.30;;;;;;4906751;28;20047;-88
2022/03/18 11:54:26;;;;;;;17.10;6.03;;;17.10;94.40;;;;;;4946844;28;20043;-88
2022/03/18 11:56:54;;;;;;;15.73;5.22;;;17.20;94.20;;;;;;4941612;28;20038;-87
2022/03/18 11:59:43;;;;;;;18.92;5.15;;;17.40;94.20;;;;;;4954818;28;20034;-92
2022/03/18 12:02:12;;;;;;;17.02;5.13;;;17.50;93.60;;;;;;4947697;28;20034;-90
2022/03/18 12:04:44;;;;;;;16.70;4.28;;;17.50;93.10;;;;;;4948855;28;20072;-89
2022/03/18 12:07:44;;;;;;;17.60;4.50;;;17.60;93.30;;;;;;4958446;28;20091;-88
2022/03/18 12:10:14;;;;;;;12.80;3.97;;;17.70;93.40;;;;;;4945967;28;20049;-89
2022/03/18 12:12:44;;;;;;;15.18;4.55;;;17.70;92.70;;;;;;4950189;28;20026;-89
2022/03/18 12:15:22;;;;;;;18.05;4.63;;;17.80;91.90;;;;;;4957719;28;20117;-91
2022/03/18 12:17:53;;;;;;;12.45;3.95;;;17.90;91.80;;;;;;4938229;28;20516;-87
2022/03/18 12:20:23;;;;;;;22.17;5.95;;;17.90;91.50;;;;;;4934207;28;20042;-89
2022/03/18 12:22:50;;;;;;;15.75;4.57;;;18.00;91.40;;;;;;4960035;28;20051;-90
2022/03/18 12:25:28;;;;;;;;;;;;;;;;;;;;;
2022/03/18 12:27:58;;;;;;;21.90;3.97;;;18.10;90.20;;;;;;4958860;28;20133;-89
2022/03/18 12:30:28;;;;;;;13.18;3.45;;;18.10;90.10;;;;;;4946391;28;20045;-87
2022/03/18 12:32:59;;;;;;;15.27;4.15;;;18.20;90.60;;;;;;4946011;28;20413;-89
2022/03/18 12:35:40;;;;;;;17.27;3.85;;;18.20;90.40;;;;;;4943451;28;20125;-91
2022/03/18 12:38:17;;;;;;;12.82;4.45;;;18.50;90.70;;;;;;4941544;28;20077;-90
2022/03/18 12:40:53;;;;;;;16.02;3.90;;;18.40;89.60;;;;;;4937153;28;20046;-84
2022/03/18 12:43:19;;;;;;;17.35;4.20;;;18.40;88.50;;;;;;4941363;28;20475;-90
2022/03/18 12:45:46;;;;;;;19.70;4.68;;;18.40;89.00;;;;;;4945036;28;20061;-89
2022/03/18 12:48:17;;;;;;;15.55;4.20;;;18.60;87.70;;;;;;4944855;28;20097;-90
2022/03/18 12:50:50;;;;;;;15.60;4.03;;;18.50;86.90;;;;;;4950332;28;20569;-90
2022/03/18 12:53:27;;;;;;;19.13;4.40;;;18.50;87.70;;;;;;4949444;28;20046;-88
2022/03/18 12:55:58;;;;;;;15.70;4.20;;;18.50;85.90;;;;;;4952529;28;20309;-90
2022/03/18 12:58:26;;;;;;;15.85;3.58;;;18.40;85.90;;;;;;4959670;28;20675;-87
2022/03/18 13:00:55;;;;;;;16.05;4.15;;;18.40;85.50;;;;;;4946565;28;20050;-90
2022/03/18 13:03:37;;;;;;;15.60;4.05;;;18.40;85.90;;;;;;4948824;28;20050;-89
2022/03/18 13:06:20;;;;;;;17.55;4.53;;;18.50;86.00;;;;;;4938992;28;20042;-87